sensor_id;sensor_type;location;lat;lon;timestamp;temperature;humidity
66726;HTU21D;53638;51.062;5.804;2023-08-06T00:00:40;17.37;118.99
66726;HTU21D;53638;51.062;5.804;2023-08-06T00:03:06;17.32;118.99
66726;HTU21D;53638;51.062;5.804;2023-08-06T00:05:32;17.30;118.99
66726;HTU21D;53638;51.062;5.804;2023-08-06T00:07:58;17.30;118.99
66726;HTU21D;53638;51.062;5.804;2023-08-06T00:10:24;17.34;118.99
66726;HTU21D;53638;51.062;5.804;2023-08-06T00:12:49;17.33;118.99
66726;HTU21D;53638;51.062;5.804;2023-08-06T00:15:15;17.31;118.99
66726;HTU21D;53638;51.062;5.804;2023-08-06T00:17:41;17.29;118.99
66726;HTU21D;53638;51.062;5.804;2023-08-06T00:20:07;17.18;118.99
66726;HTU21D;53638;51.062;5.804;2023-08-06T00:22:36;17.13;118.99
66726;HTU21D;53638;51.062;5.804;2023-08-06T00:25:03;17.02;118.99
66726;HTU21D;53638;51.062;5.804;2023-08-06T00:27:29;16.94;118.99
66726;HTU21D;53638;51.062;5.804;2023-08-06T00:29:55;16.87;118.99
66726;HTU21D;53638;51.062;5.804;2023-08-06T00:32:22;16.85;118.99
66726;HTU21D;53638;51.062;5.804;2023-08-06T00:34:48;16.80;118.99
66726;HTU21D;53638;51.062;5.804;2023-08-06T00:37:16;16.77;118.99
66726;HTU21D;53638;51.062;5.804;2023-08-06T00:39:43;16.73;118.99
66726;HTU21D;53638;51.062;5.804;2023-08-06T00:42:10;16.69;118.99
66726;HTU21D;53638;51.062;5.804;2023-08-06T00:44:36;16.62;118.99
66726;HTU21D;53638;51.062;5.804;2023-08-06T00:47:03;16.56;118.99
66726;HTU21D;53638;51.062;5.804;2023-08-06T00:49:29;16.55;118.99
66726;HTU21D;53638;51.062;5.804;2023-08-06T00:51:58;16.50;118.99
66726;HTU21D;53638;51.062;5.804;2023-08-06T00:54:25;16.50;118.99
66726;HTU21D;53638;51.062;5.804;2023-08-06T00:56:53;16.47;118.99
66726;HTU21D;53638;51.062;5.804;2023-08-06T00:59:19;16.47;118.99
66726;HTU21D;53638;51.062;5.804;2023-08-06T01:01:45;16.48;118.99
66726;HTU21D;53638;51.062;5.804;2023-08-06T01:04:12;16.47;118.99
66726;HTU21D;53638;51.062;5.804;2023-08-06T01:06:47;16.47;118.99
66726;HTU21D;53638;51.062;5.804;2023-08-06T01:09:25;16.44;118.99
66726;HTU21D;53638;51.062;5.804;2023-08-06T01:15:14;16.44;118.99
66726;HTU21D;53638;51.062;5.804;2023-08-06T01:17:41;16.45;118.99
66726;HTU21D;53638;51.062;5.804;2023-08-06T01:20:07;16.48;118.99
66726;HTU21D;53638;51.062;5.804;2023-08-06T01:22:34;16.56;118.99
66726;HTU21D;53638;51.062;5.804;2023-08-06T01:25:00;16.63;118.99
66726;HTU21D;53638;51.062;5.804;2023-08-06T01:30:01;16.80;118.99
66726;HTU21D;53638;51.062;5.804;2023-08-06T01:32:32;16.86;118.99
66726;HTU21D;53638;51.062;5.804;2023-08-06T01:35:00;16.85;118.99
66726;HTU21D;53638;51.062;5.804;2023-08-06T01:37:28;16.87;118.99
66726;HTU21D;53638;51.062;5.804;2023-08-06T01:39:54;16.87;118.99
66726;HTU21D;53638;51.062;5.804;2023-08-06T01:42:20;16.92;118.99
66726;HTU21D;53638;51.062;5.804;2023-08-06T01:44:46;16.95;118.99
66726;HTU21D;53638;51.062;5.804;2023-08-06T01:47:12;16.94;118.99
66726;HTU21D;53638;51.062;5.804;2023-08-06T01:49:38;16.96;118.99
66726;HTU21D;53638;51.062;5.804;2023-08-06T01:52:04;16.99;118.99
66726;HTU21D;53638;51.062;5.804;2023-08-06T01:54:32;17.04;118.99
66726;HTU21D;53638;51.062;5.804;2023-08-06T01:56:58;17.07;118.99
66726;HTU21D;53638;51.062;5.804;2023-08-06T01:59:24;17.05;118.99
66726;HTU21D;53638;51.062;5.804;2023-08-06T02:01:50;17.02;118.99
66726;HTU21D;53638;51.062;5.804;2023-08-06T02:04:16;16.93;118.99
66726;HTU21D;53638;51.062;5.804;2023-08-06T02:06:42;16.84;118.99
66726;HTU21D;53638;51.062;5.804;2023-08-06T02:09:07;16.80;118.99
66726;HTU21D;53638;51.062;5.804;2023-08-06T02:11:35;16.88;118.99
66726;HTU21D;53638;51.062;5.804;2023-08-06T02:14:01;16.92;118.99
66726;HTU21D;53638;51.062;5.804;2023-08-06T02:16:27;16.96;118.99
66726;HTU21D;53638;51.062;5.804;2023-08-06T02:18:53;16.96;118.99
66726;HTU21D;53638;51.062;5.804;2023-08-06T02:21:24;16.93;118.99
66726;HTU21D;53638;51.062;5.804;2023-08-06T02:23:50;16.93;118.99
66726;HTU21D;53638;51.062;5.804;2023-08-06T02:26:16;16.94;118.99
66726;HTU21D;53638;51.062;5.804;2023-08-06T02:28:42;16.96;118.99
66726;HTU21D;53638;51.062;5.804;2023-08-06T02:31:08;16.93;118.99
66726;HTU21D;53638;51.062;5.804;2023-08-06T02:33:36;16.91;118.99
66726;HTU21D;53638;51.062;5.804;2023-08-06T02:36:03;16.88;118.99
66726;HTU21D;53638;51.062;5.804;2023-08-06T02:38:31;16.87;118.99
66726;HTU21D;53638;51.062;5.804;2023-08-06T02:40:57;16.84;118.99
66726;HTU21D;53638;51.062;5.804;2023-08-06T02:43:24;16.87;118.99
66726;HTU21D;53638;51.062;5.804;2023-08-06T02:45:50;16.91;118.99
66726;HTU21D;53638;51.062;5.804;2023-08-06T02:48:16;16.91;118.99
66726;HTU21D;53638;51.062;5.804;2023-08-06T02:50:43;16.91;118.99
66726;HTU21D;53638;51.062;5.804;2023-08-06T02:53:10;16.91;118.99
66726;HTU21D;53638;51.062;5.804;2023-08-06T02:55:37;16.90;118.99
66726;HTU21D;53638;51.062;5.804;2023-08-06T02:58:07;16.92;118.99
66726;HTU21D;53638;51.062;5.804;2023-08-06T03:00:38;16.86;118.99
66726;HTU21D;53638;51.062;5.804;2023-08-06T03:03:06;16.80;118.99
66726;HTU21D;53638;51.062;5.804;2023-08-06T03:05:40;16.77;118.99
66726;HTU21D;53638;51.062;5.804;2023-08-06T03:08:06;16.80;118.99
66726;HTU21D;53638;51.062;5.804;2023-08-06T03:10:34;16.78;118.99
66726;HTU21D;53638;51.062;5.804;2023-08-06T03:13:03;16.78;118.99
66726;HTU21D;53638;51.062;5.804;2023-08-06T03:15:29;16.76;118.99
66726;HTU21D;53638;51.062;5.804;2023-08-06T03:17:56;16.73;118.99
66726;HTU21D;53638;51.062;5.804;2023-08-06T03:20:22;16.67;118.99
66726;HTU21D;53638;51.062;5.804;2023-08-06T03:22:48;16.67;118.99
66726;HTU21D;53638;51.062;5.804;2023-08-06T03:25:14;16.65;118.99
66726;HTU21D;53638;51.062;5.804;2023-08-06T03:27:44;16.65;118.99
66726;HTU21D;53638;51.062;5.804;2023-08-06T03:30:11;16.64;118.99
66726;HTU21D;53638;51.062;5.804;2023-08-06T03:32:38;16.62;118.99
66726;HTU21D;53638;51.062;5.804;2023-08-06T03:35:05;16.58;118.99
66726;HTU21D;53638;51.062;5.804;2023-08-06T03:37:31;16.61;118.99
66726;HTU21D;53638;51.062;5.804;2023-08-06T03:39:57;16.63;118.99
66726;HTU21D;53638;51.062;5.804;2023-08-06T03:42:23;16.65;118.99
66726;HTU21D;53638;51.062;5.804;2023-08-06T03:44:49;16.71;118.99
66726;HTU21D;53638;51.062;5.804;2023-08-06T03:47:15;16.73;118.99
66726;HTU21D;53638;51.062;5.804;2023-08-06T03:49:41;16.75;118.99
66726;HTU21D;53638;51.062;5.804;2023-08-06T03:52:08;16.76;118.99
66726;HTU21D;53638;51.062;5.804;2023-08-06T03:54:34;16.77;118.99
66726;HTU21D;53638;51.062;5.804;2023-08-06T03:57:01;16.79;118.99
66726;HTU21D;53638;51.062;5.804;2023-08-06T03:59:27;16.80;118.99
66726;HTU21D;53638;51.062;5.804;2023-08-06T04:01:55;16.82;118.99
66726;HTU21D;53638;51.062;5.804;2023-08-06T04:04:20;16.85;118.99
66726;HTU21D;53638;51.062;5.804;2023-08-06T04:06:46;16.87;118.99
66726;HTU21D;53638;51.062;5.804;2023-08-06T04:09:13;16.90;118.99
66726;HTU21D;53638;51.062;5.804;2023-08-06T04:11:39;16.93;118.99
66726;HTU21D;53638;51.062;5.804;2023-08-06T04:14:05;16.92;118.99
66726;HTU21D;53638;51.062;5.804;2023-08-06T04:16:30;16.90;118.99
66726;HTU21D;53638;51.062;5.804;2023-08-06T04:18:56;16.89;118.99
66726;HTU21D;53638;51.062;5.804;2023-08-06T04:21:23;16.90;118.99
66726;HTU21D;53638;51.062;5.804;2023-08-06T04:23:49;16.89;118.99
66726;HTU21D;53638;51.062;5.804;2023-08-06T04:26:18;16.88;118.99
66726;HTU21D;53638;51.062;5.804;2023-08-06T04:28:44;16.88;118.99
66726;HTU21D;53638;51.062;5.804;2023-08-06T04:31:10;16.87;118.99
66726;HTU21D;53638;51.062;5.804;2023-08-06T04:33:38;16.86;118.99
66726;HTU21D;53638;51.062;5.804;2023-08-06T04:36:08;16.85;118.99
66726;HTU21D;53638;51.062;5.804;2023-08-06T04:38:34;16.89;118.99
66726;HTU21D;53638;51.062;5.804;2023-08-06T04:41:02;16.92;118.99
66726;HTU21D;53638;51.062;5.804;2023-08-06T04:43:28;16.98;118.99
66726;HTU21D;53638;51.062;5.804;2023-08-06T04:45:55;17.02;118.99
66726;HTU21D;53638;51.062;5.804;2023-08-06T04:48:22;17.09;118.99
66726;HTU21D;53638;51.062;5.804;2023-08-06T04:50:49;17.16;118.99
66726;HTU21D;53638;51.062;5.804;2023-08-06T04:53:16;17.23;118.99
66726;HTU21D;53638;51.062;5.804;2023-08-06T04:55:42;17.28;118.99
66726;HTU21D;53638;51.062;5.804;2023-08-06T04:58:10;17.29;118.99
66726;HTU21D;53638;51.062;5.804;2023-08-06T05:00:36;17.32;118.99
66726;HTU21D;53638;51.062;5.804;2023-08-06T05:03:02;17.36;118.99
66726;HTU21D;53638;51.062;5.804;2023-08-06T05:05:28;17.43;118.99
66726;HTU21D;53638;51.062;5.804;2023-08-06T05:07:56;17.50;118.99
66726;HTU21D;53638;51.062;5.804;2023-08-06T05:10:24;17.53;118.99
66726;HTU21D;53638;51.062;5.804;2023-08-06T05:12:51;17.56;118.99
66726;HTU21D;53638;51.062;5.804;2023-08-06T05:15:17;17.58;118.99
66726;HTU21D;53638;51.062;5.804;2023-08-06T05:17:42;17.59;118.99
66726;HTU21D;53638;51.062;5.804;2023-08-06T05:20:09;17.62;118.99
66726;HTU21D;53638;51.062;5.804;2023-08-06T05:22:35;17.65;118.99
66726;HTU21D;53638;51.062;5.804;2023-08-06T05:25:01;17.68;118.99
66726;HTU21D;53638;51.062;5.804;2023-08-06T05:27:27;17.75;118.99
66726;HTU21D;53638;51.062;5.804;2023-08-06T05:29:55;17.76;118.99
66726;HTU21D;53638;51.062;5.804;2023-08-06T05:32:22;17.78;118.99
66726;HTU21D;53638;51.062;5.804;2023-08-06T05:34:48;17.80;118.99
66726;HTU21D;53638;51.062;5.804;2023-08-06T05:37:14;17.83;118.99
66726;HTU21D;53638;51.062;5.804;2023-08-06T05:39:40;17.89;118.99
66726;HTU21D;53638;51.062;5.804;2023-08-06T05:42:06;17.91;118.99
66726;HTU21D;53638;51.062;5.804;2023-08-06T05:44:32;17.93;118.99
66726;HTU21D;53638;51.062;5.804;2023-08-06T05:46:59;17.92;118.99
66726;HTU21D;53638;51.062;5.804;2023-08-06T05:49:25;17.90;118.99
66726;HTU21D;53638;51.062;5.804;2023-08-06T05:51:51;17.92;118.99
66726;HTU21D;53638;51.062;5.804;2023-08-06T05:54:19;17.94;118.99
66726;HTU21D;53638;51.062;5.804;2023-08-06T05:56:45;17.92;118.99
66726;HTU21D;53638;51.062;5.804;2023-08-06T05:59:11;17.89;118.99
66726;HTU21D;53638;51.062;5.804;2023-08-06T06:01:37;17.78;118.99
66726;HTU21D;53638;51.062;5.804;2023-08-06T06:04:03;17.67;118.99
66726;HTU21D;53638;51.062;5.804;2023-08-06T06:06:29;17.55;118.99
66726;HTU21D;53638;51.062;5.804;2023-08-06T06:08:55;17.44;118.99
66726;HTU21D;53638;51.062;5.804;2023-08-06T06:11:21;17.31;118.99
66726;HTU21D;53638;51.062;5.804;2023-08-06T06:13:51;17.20;118.99
66726;HTU21D;53638;51.062;5.804;2023-08-06T06:16:17;17.09;118.99
66726;HTU21D;53638;51.062;5.804;2023-08-06T06:18:43;17.01;118.99
66726;HTU21D;53638;51.062;5.804;2023-08-06T06:21:10;16.93;118.99
66726;HTU21D;53638;51.062;5.804;2023-08-06T06:23:36;16.88;118.99
66726;HTU21D;53638;51.062;5.804;2023-08-06T06:26:02;16.81;118.99
66726;HTU21D;53638;51.062;5.804;2023-08-06T06:28:28;16.76;118.99
66726;HTU21D;53638;51.062;5.804;2023-08-06T06:31:00;16.71;118.99
66726;HTU21D;53638;51.062;5.804;2023-08-06T06:33:26;16.61;118.99
66726;HTU21D;53638;51.062;5.804;2023-08-06T06:35:51;16.51;118.99
66726;HTU21D;53638;51.062;5.804;2023-08-06T06:38:17;16.45;118.99
66726;HTU21D;53638;51.062;5.804;2023-08-06T06:40:43;16.39;118.99
66726;HTU21D;53638;51.062;5.804;2023-08-06T06:43:09;16.29;118.99
66726;HTU21D;53638;51.062;5.804;2023-08-06T06:45:35;16.25;118.99
66726;HTU21D;53638;51.062;5.804;2023-08-06T06:48:01;16.16;118.99
66726;HTU21D;53638;51.062;5.804;2023-08-06T06:50:27;16.13;118.99
66726;HTU21D;53638;51.062;5.804;2023-08-06T06:52:53;16.10;118.99
66726;HTU21D;53638;51.062;5.804;2023-08-06T06:55:19;16.11;118.99
66726;HTU21D;53638;51.062;5.804;2023-08-06T06:57:44;16.15;118.99
66726;HTU21D;53638;51.062;5.804;2023-08-06T07:00:11;16.19;118.99
66726;HTU21D;53638;51.062;5.804;2023-08-06T07:02:37;16.21;118.99
66726;HTU21D;53638;51.062;5.804;2023-08-06T07:05:03;16.18;118.99
66726;HTU21D;53638;51.062;5.804;2023-08-06T07:07:29;16.20;118.99
66726;HTU21D;53638;51.062;5.804;2023-08-06T07:09:55;16.22;118.99
66726;HTU21D;53638;51.062;5.804;2023-08-06T07:12:21;16.27;118.99
66726;HTU21D;53638;51.062;5.804;2023-08-06T07:14:47;16.31;118.99
66726;HTU21D;53638;51.062;5.804;2023-08-06T07:17:13;16.39;118.99
66726;HTU21D;53638;51.062;5.804;2023-08-06T07:19:39;16.46;118.99
66726;HTU21D;53638;51.062;5.804;2023-08-06T07:22:05;16.49;118.99
66726;HTU21D;53638;51.062;5.804;2023-08-06T07:24:31;16.52;118.99
66726;HTU21D;53638;51.062;5.804;2023-08-06T07:26:57;16.50;118.99
66726;HTU21D;53638;51.062;5.804;2023-08-06T07:29:23;16.52;118.99
66726;HTU21D;53638;51.062;5.804;2023-08-06T07:31:48;16.52;118.99
66726;HTU21D;53638;51.062;5.804;2023-08-06T07:34:16;16.46;118.99
66726;HTU21D;53638;51.062;5.804;2023-08-06T07:36:45;16.39;118.99
66726;HTU21D;53638;51.062;5.804;2023-08-06T07:39:11;15.70;118.99
66726;HTU21D;53638;51.062;5.804;2023-08-06T07:41:37;15.25;118.99
66726;HTU21D;53638;51.062;5.804;2023-08-06T07:44:04;14.94;118.99
66726;HTU21D;53638;51.062;5.804;2023-08-06T07:46:30;14.80;118.99
66726;HTU21D;53638;51.062;5.804;2023-08-06T07:48:56;14.79;118.99
66726;HTU21D;53638;51.062;5.804;2023-08-06T07:51:22;14.77;118.99
66726;HTU21D;53638;51.062;5.804;2023-08-06T07:53:47;14.81;118.99
66726;HTU21D;53638;51.062;5.804;2023-08-06T07:56:13;14.85;118.99
66726;HTU21D;53638;51.062;5.804;2023-08-06T07:58:39;14.95;118.99
66726;HTU21D;53638;51.062;5.804;2023-08-06T08:01:06;15.00;118.99
66726;HTU21D;53638;51.062;5.804;2023-08-06T08:03:32;15.02;118.99
66726;HTU21D;53638;51.062;5.804;2023-08-06T08:05:58;15.04;118.99
66726;HTU21D;53638;51.062;5.804;2023-08-06T08:08:24;15.10;118.99
66726;HTU21D;53638;51.062;5.804;2023-08-06T08:10:50;15.08;118.99
66726;HTU21D;53638;51.062;5.804;2023-08-06T08:13:16;15.04;118.99
66726;HTU21D;53638;51.062;5.804;2023-08-06T08:15:42;14.99;118.99
66726;HTU21D;53638;51.062;5.804;2023-08-06T08:18:08;14.93;118.99
66726;HTU21D;53638;51.062;5.804;2023-08-06T08:20:34;14.91;118.99
66726;HTU21D;53638;51.062;5.804;2023-08-06T08:23:02;14.89;118.99
66726;HTU21D;53638;51.062;5.804;2023-08-06T08:25:28;14.81;118.99
66726;HTU21D;53638;51.062;5.804;2023-08-06T08:27:55;14.74;118.99
66726;HTU21D;53638;51.062;5.804;2023-08-06T08:30:21;14.72;118.99
66726;HTU21D;53638;51.062;5.804;2023-08-06T08:32:48;14.74;118.99
66726;HTU21D;53638;51.062;5.804;2023-08-06T08:35:14;14.85;118.99
66726;HTU21D;53638;51.062;5.804;2023-08-06T08:37:42;14.88;118.99
66726;HTU21D;53638;51.062;5.804;2023-08-06T08:40:09;14.92;118.99
66726;HTU21D;53638;51.062;5.804;2023-08-06T08:42:37;14.85;118.99
66726;HTU21D;53638;51.062;5.804;2023-08-06T08:45:04;14.84;118.99
66726;HTU21D;53638;51.062;5.804;2023-08-06T08:47:34;14.84;118.99
66726;HTU21D;53638;51.062;5.804;2023-08-06T08:50:01;14.89;118.99
66726;HTU21D;53638;51.062;5.804;2023-08-06T08:52:28;14.93;118.99
66726;HTU21D;53638;51.062;5.804;2023-08-06T08:54:56;15.03;118.99
66726;HTU21D;53638;51.062;5.804;2023-08-06T08:57:22;15.11;118.99
66726;HTU21D;53638;51.062;5.804;2023-08-06T08:59:48;15.12;118.99
66726;HTU21D;53638;51.062;5.804;2023-08-06T09:02:15;15.18;118.99
66726;HTU21D;53638;51.062;5.804;2023-08-06T09:04:44;15.24;118.99
66726;HTU21D;53638;51.062;5.804;2023-08-06T09:07:16;15.31;118.99
66726;HTU21D;53638;51.062;5.804;2023-08-06T09:09:45;15.48;118.99
66726;HTU21D;53638;51.062;5.804;2023-08-06T09:12:15;15.57;118.99
66726;HTU21D;53638;51.062;5.804;2023-08-06T09:14:42;15.57;118.99
66726;HTU21D;53638;51.062;5.804;2023-08-06T09:17:10;15.61;118.99
66726;HTU21D;53638;51.062;5.804;2023-08-06T09:19:37;15.73;118.99
66726;HTU21D;53638;51.062;5.804;2023-08-06T09:22:03;15.76;118.99
66726;HTU21D;53638;51.062;5.804;2023-08-06T09:24:29;15.69;118.99
66726;HTU21D;53638;51.062;5.804;2023-08-06T09:26:55;15.70;118.99
66726;HTU21D;53638;51.062;5.804;2023-08-06T09:29:21;15.78;118.99
66726;HTU21D;53638;51.062;5.804;2023-08-06T09:31:48;15.83;118.99
66726;HTU21D;53638;51.062;5.804;2023-08-06T09:36:43;15.93;118.99
66726;HTU21D;53638;51.062;5.804;2023-08-06T09:39:14;15.96;118.99
66726;HTU21D;53638;51.062;5.804;2023-08-06T09:41:42;15.96;118.99
66726;HTU21D;53638;51.062;5.804;2023-08-06T09:44:18;15.87;118.99
66726;HTU21D;53638;51.062;5.804;2023-08-06T09:46:51;15.80;118.99
66726;HTU21D;53638;51.062;5.804;2023-08-06T09:49:19;15.74;118.99
66726;HTU21D;53638;51.062;5.804;2023-08-06T09:51:46;15.71;118.99
66726;HTU21D;53638;51.062;5.804;2023-08-06T09:54:15;15.59;118.99
66726;HTU21D;53638;51.062;5.804;2023-08-06T09:56:42;15.53;118.99
66726;HTU21D;53638;51.062;5.804;2023-08-06T09:59:09;15.49;118.99
66726;HTU21D;53638;51.062;5.804;2023-08-06T10:01:36;15.41;118.99
66726;HTU21D;53638;51.062;5.804;2023-08-06T10:04:04;15.32;118.99
66726;HTU21D;53638;51.062;5.804;2023-08-06T10:06:34;15.26;118.99
66726;HTU21D;53638;51.062;5.804;2023-08-06T10:09:02;15.19;118.99
66726;HTU21D;53638;51.062;5.804;2023-08-06T10:11:29;15.18;118.99
66726;HTU21D;53638;51.062;5.804;2023-08-06T10:14:01;15.09;118.99
66726;HTU21D;53638;51.062;5.804;2023-08-06T10:16:30;15.01;118.99
66726;HTU21D;53638;51.062;5.804;2023-08-06T10:18:57;15.01;118.99
66726;HTU21D;53638;51.062;5.804;2023-08-06T10:21:24;15.03;118.99
66726;HTU21D;53638;51.062;5.804;2023-08-06T10:23:54;15.07;118.99
66726;HTU21D;53638;51.062;5.804;2023-08-06T10:26:20;15.09;118.99
66726;HTU21D;53638;51.062;5.804;2023-08-06T10:28:50;15.06;118.99
66726;HTU21D;53638;51.062;5.804;2023-08-06T10:31:16;15.13;118.99
66726;HTU21D;53638;51.062;5.804;2023-08-06T10:33:45;15.23;118.99
66726;HTU21D;53638;51.062;5.804;2023-08-06T10:36:11;15.28;118.99
66726;HTU21D;53638;51.062;5.804;2023-08-06T10:38:48;15.32;118.99
66726;HTU21D;53638;51.062;5.804;2023-08-06T10:41:29;15.34;118.99
66726;HTU21D;53638;51.062;5.804;2023-08-06T10:44:07;15.38;118.99
66726;HTU21D;53638;51.062;5.804;2023-08-06T10:46:34;15.47;118.99
66726;HTU21D;53638;51.062;5.804;2023-08-06T10:49:01;15.53;118.99
66726;HTU21D;53638;51.062;5.804;2023-08-06T10:51:27;15.58;118.99
66726;HTU21D;53638;51.062;5.804;2023-08-06T10:53:53;15.54;118.99
66726;HTU21D;53638;51.062;5.804;2023-08-06T10:56:21;15.49;118.99
66726;HTU21D;53638;51.062;5.804;2023-08-06T10:58:48;15.46;118.99
66726;HTU21D;53638;51.062;5.804;2023-08-06T11:01:15;15.47;118.99
66726;HTU21D;53638;51.062;5.804;2023-08-06T11:03:43;15.51;118.99
66726;HTU21D;53638;51.062;5.804;2023-08-06T11:06:10;15.52;118.99
66726;HTU21D;53638;51.062;5.804;2023-08-06T11:08:38;15.47;118.99
66726;HTU21D;53638;51.062;5.804;2023-08-06T11:11:15;15.44;118.99
66726;HTU21D;53638;51.062;5.804;2023-08-06T11:13:44;15.43;118.99
66726;HTU21D;53638;51.062;5.804;2023-08-06T11:16:14;15.47;118.99
66726;HTU21D;53638;51.062;5.804;2023-08-06T11:18:41;15.54;118.99
66726;HTU21D;53638;51.062;5.804;2023-08-06T11:21:08;15.61;118.99
66726;HTU21D;53638;51.062;5.804;2023-08-06T11:23:34;15.65;118.99
66726;HTU21D;53638;51.062;5.804;2023-08-06T11:26:01;15.61;118.99
66726;HTU21D;53638;51.062;5.804;2023-08-06T11:28:28;15.63;118.99
66726;HTU21D;53638;51.062;5.804;2023-08-06T11:30:55;15.67;118.99
66726;HTU21D;53638;51.062;5.804;2023-08-06T11:33:26;15.66;118.99
66726;HTU21D;53638;51.062;5.804;2023-08-06T11:35:55;15.69;118.99
66726;HTU21D;53638;51.062;5.804;2023-08-06T11:38:26;15.70;118.99
66726;HTU21D;53638;51.062;5.804;2023-08-06T11:40:53;15.68;118.99
66726;HTU21D;53638;51.062;5.804;2023-08-06T11:43:20;15.68;118.99
66726;HTU21D;53638;51.062;5.804;2023-08-06T11:45:49;15.74;118.99
66726;HTU21D;53638;51.062;5.804;2023-08-06T11:48:16;15.73;118.99
66726;HTU21D;53638;51.062;5.804;2023-08-06T11:50:43;15.80;118.99
66726;HTU21D;53638;51.062;5.804;2023-08-06T11:53:13;15.89;118.99
66726;HTU21D;53638;51.062;5.804;2023-08-06T11:55:40;15.96;118.99
66726;HTU21D;53638;51.062;5.804;2023-08-06T11:58:06;16.07;118.99
66726;HTU21D;53638;51.062;5.804;2023-08-06T12:00:33;16.11;118.99
66726;HTU21D;53638;51.062;5.804;2023-08-06T12:02:59;16.04;118.99
66726;HTU21D;53638;51.062;5.804;2023-08-06T12:05:31;16.02;118.99
66726;HTU21D;53638;51.062;5.804;2023-08-06T12:08:01;16.10;118.99
66726;HTU21D;53638;51.062;5.804;2023-08-06T12:10:30;16.11;118.99
66726;HTU21D;53638;51.062;5.804;2023-08-06T12:12:56;16.12;118.99
66726;HTU21D;53638;51.062;5.804;2023-08-06T12:15:23;16.13;118.99
66726;HTU21D;53638;51.062;5.804;2023-08-06T12:17:49;16.17;118.99
66726;HTU21D;53638;51.062;5.804;2023-08-06T12:20:15;16.27;118.99
66726;HTU21D;53638;51.062;5.804;2023-08-06T12:22:41;16.35;118.99
66726;HTU21D;53638;51.062;5.804;2023-08-06T12:25:09;16.36;118.99
66726;HTU21D;53638;51.062;5.804;2023-08-06T12:27:38;16.20;118.99
66726;HTU21D;53638;51.062;5.804;2023-08-06T12:30:05;15.97;118.99
66726;HTU21D;53638;51.062;5.804;2023-08-06T12:32:33;15.84;118.99
66726;HTU21D;53638;51.062;5.804;2023-08-06T12:34:59;15.73;118.99
66726;HTU21D;53638;51.062;5.804;2023-08-06T12:37:27;15.69;118.99
66726;HTU21D;53638;51.062;5.804;2023-08-06T12:39:53;15.66;118.99
66726;HTU21D;53638;51.062;5.804;2023-08-06T12:42:19;15.58;118.99
66726;HTU21D;53638;51.062;5.804;2023-08-06T12:44:44;15.44;118.99
66726;HTU21D;53638;51.062;5.804;2023-08-06T12:47:11;15.38;118.99
66726;HTU21D;53638;51.062;5.804;2023-08-06T12:49:37;15.41;118.99
66726;HTU21D;53638;51.062;5.804;2023-08-06T12:52:02;15.46;118.99
66726;HTU21D;53638;51.062;5.804;2023-08-06T12:54:32;15.55;118.99
66726;HTU21D;53638;51.062;5.804;2023-08-06T12:57:03;15.56;118.99
66726;HTU21D;53638;51.062;5.804;2023-08-06T12:59:30;15.66;118.99
66726;HTU21D;53638;51.062;5.804;2023-08-06T13:01:56;15.66;118.99
66726;HTU21D;53638;51.062;5.804;2023-08-06T13:04:22;15.68;118.99
66726;HTU21D;53638;51.062;5.804;2023-08-06T13:06:48;15.68;118.99
66726;HTU21D;53638;51.062;5.804;2023-08-06T13:09:15;15.71;118.99
66726;HTU21D;53638;51.062;5.804;2023-08-06T13:11:42;15.77;118.99
66726;HTU21D;53638;51.062;5.804;2023-08-06T13:14:13;15.68;118.99
66726;HTU21D;53638;51.062;5.804;2023-08-06T13:16:41;15.68;118.99
66726;HTU21D;53638;51.062;5.804;2023-08-06T13:19:08;15.68;118.99
66726;HTU21D;53638;51.062;5.804;2023-08-06T13:24:15;15.59;118.99
66726;HTU21D;53638;51.062;5.804;2023-08-06T13:26:41;15.59;118.99
66726;HTU21D;53638;51.062;5.804;2023-08-06T13:29:07;15.63;118.99
66726;HTU21D;53638;51.062;5.804;2023-08-06T13:31:33;15.74;118.99
66726;HTU21D;53638;51.062;5.804;2023-08-06T13:33:59;15.83;118.99
66726;HTU21D;53638;51.062;5.804;2023-08-06T13:36:27;15.80;118.99
66726;HTU21D;53638;51.062;5.804;2023-08-06T13:38:53;15.75;118.99
66726;HTU21D;53638;51.062;5.804;2023-08-06T13:41:20;15.72;118.99
66726;HTU21D;53638;51.062;5.804;2023-08-06T13:43:46;15.68;118.99
66726;HTU21D;53638;51.062;5.804;2023-08-06T13:46:12;15.59;118.99
66726;HTU21D;53638;51.062;5.804;2023-08-06T13:48:42;15.61;118.99
66726;HTU21D;53638;51.062;5.804;2023-08-06T13:51:10;15.68;118.99
66726;HTU21D;53638;51.062;5.804;2023-08-06T13:53:37;15.67;118.99
66726;HTU21D;53638;51.062;5.804;2023-08-06T13:56:05;15.75;118.99
66726;HTU21D;53638;51.062;5.804;2023-08-06T13:58:32;15.86;118.99
66726;HTU21D;53638;51.062;5.804;2023-08-06T14:00:59;15.91;118.99
66726;HTU21D;53638;51.062;5.804;2023-08-06T14:03:25;15.95;118.99
66726;HTU21D;53638;51.062;5.804;2023-08-06T14:05:51;15.90;118.99
66726;HTU21D;53638;51.062;5.804;2023-08-06T14:08:17;15.86;118.99
66726;HTU21D;53638;51.062;5.804;2023-08-06T14:10:45;15.86;118.99
66726;HTU21D;53638;51.062;5.804;2023-08-06T14:13:11;15.92;118.99
66726;HTU21D;53638;51.062;5.804;2023-08-06T14:15:38;16.03;118.99
66726;HTU21D;53638;51.062;5.804;2023-08-06T14:18:07;16.12;118.99
66726;HTU21D;53638;51.062;5.804;2023-08-06T14:20:34;16.08;118.99
66726;HTU21D;53638;51.062;5.804;2023-08-06T14:23:00;16.05;118.99
66726;HTU21D;53638;51.062;5.804;2023-08-06T14:25:27;16.03;118.99
66726;HTU21D;53638;51.062;5.804;2023-08-06T14:27:53;15.98;118.99
66726;HTU21D;53638;51.062;5.804;2023-08-06T14:30:19;15.91;118.99
66726;HTU21D;53638;51.062;5.804;2023-08-06T14:32:45;15.83;118.99
66726;HTU21D;53638;51.062;5.804;2023-08-06T14:35:11;15.81;118.99
66726;HTU21D;53638;51.062;5.804;2023-08-06T14:37:37;15.77;118.99
66726;HTU21D;53638;51.062;5.804;2023-08-06T14:40:05;15.85;118.99
66726;HTU21D;53638;51.062;5.804;2023-08-06T14:42:31;15.93;118.99
66726;HTU21D;53638;51.062;5.804;2023-08-06T14:44:57;16.03;118.99
66726;HTU21D;53638;51.062;5.804;2023-08-06T14:47:23;16.16;118.99
66726;HTU21D;53638;51.062;5.804;2023-08-06T14:49:49;16.24;118.99
66726;HTU21D;53638;51.062;5.804;2023-08-06T14:52:16;16.35;118.99
66726;HTU21D;53638;51.062;5.804;2023-08-06T14:54:42;16.35;118.99
66726;HTU21D;53638;51.062;5.804;2023-08-06T14:57:10;16.20;118.99
66726;HTU21D;53638;51.062;5.804;2023-08-06T14:59:36;16.14;118.99
66726;HTU21D;53638;51.062;5.804;2023-08-06T15:02:02;16.02;118.99
66726;HTU21D;53638;51.062;5.804;2023-08-06T15:04:29;15.92;118.99
66726;HTU21D;53638;51.062;5.804;2023-08-06T15:06:55;15.90;118.99
66726;HTU21D;53638;51.062;5.804;2023-08-06T15:09:21;15.97;118.99
66726;HTU21D;53638;51.062;5.804;2023-08-06T15:11:48;16.07;118.99